Time;durP1;ratioP1;P1;durP2;ratioP2;P2;SDS_P1;SDS_P2;PMS_P1;PMS_P2;Temp;Humidity;BMP_temperature;BMP_pressure;BME280_temperature;BME280_humidity;BME280_pressure;Samples;Min_cycle;Max_cycle;Signal;HPM_P1;HPM_P2
2022/05/10 00:01:28;;;;;;;7.05;5.53;;;;;;;11.76;100.00;99554.72;5008868;28;20508;-77
2022/05/10 00:03:55;;;;;;;9.13;5.82;;;;;;;11.62;100.00;99553.59;4997133;28;20505;-77
2022/05/10 00:06:23;;;;;;;6.93;5.68;;;;;;;11.77;100.00;99557.25;5007706;28;20295;-77
2022/05/10 00:08:50;;;;;;;7.60;5.60;;;;;;;11.72;100.00;99521.53;4998804;28;20421;-76
2022/05/10 00:11:16;;;;;;;11.25;5.50;;;;;;;11.99;100.00;99566.44;5001109;28;20151;-77
2022/05/10 00:13:43;;;;;;;7.10;4.95;;;;;;;11.64;100.00;99525.16;5003431;28;20058;-77
2022/05/10 00:16:14;;;;;;;11.13;5.65;;;;;;;11.72;100.00;99554.22;5009076;28;20046;-76
2022/05/10 00:18:41;;;;;;;8.48;5.93;;;;;;;11.56;100.00;99544.31;5028659;28;20042;-77
2022/05/10 00:21:09;;;;;;;8.23;6.05;;;;;;;11.51;100.00;99555.72;5003023;28;20045;-77
2022/05/10 00:23:37;;;;;;;6.60;5.13;;;;;;;11.51;100.00;99560.31;5015598;28;20057;-76
2022/05/10 00:26:04;;;;;;;7.80;5.50;;;;;;;11.18;100.00;99530.59;5007135;28;20054;-77
2022/05/10 00:28:30;;;;;;;8.45;5.35;;;;;;;11.51;100.00;99573.94;5001504;28;20061;-77
2022/05/10 00:30:57;;;;;;;8.70;5.43;;;;;;;11.38;100.00;99535.56;5007381;28;20218;-77
2022/05/10 00:33:28;;;;;;;8.13;5.85;;;;;;;11.54;100.00;99549.06;5000560;28;20175;-76
2022/05/10 00:35:55;;;;;;;6.28;5.63;;;;;;;11.40;100.00;99547.16;5010366;28;20071;-76
2022/05/10 00:38:24;;;;;;;11.32;6.30;;;;;;;11.50;100.00;99564.94;5010076;28;20053;-77
2022/05/10 00:40:52;;;;;;;8.73;6.07;;;;;;;11.43;100.00;99566.69;5010079;28;20054;-77
2022/05/10 00:43:30;;;;;;;9.73;5.72;;;;;;;11.32;100.00;99564.34;5001641;28;20516;-76
2022/05/10 00:46:00;;;;;;;7.00;5.40;;;;;;;11.01;100.00;99532.59;5008760;28;20484;-76
2022/05/10 00:48:33;;;;;;;8.43;6.28;;;;;;;11.05;100.00;99530.34;5020562;28;20045;-76
2022/05/10 00:51:15;;;;;;;6.95;5.53;;;;;;;11.21;100.00;99543.03;5016843;28;20053;-76
2022/05/10 00:53:58;;;;;;;9.02;5.88;;;;;;;11.25;100.00;99566.97;5010910;28;20979;-76
2022/05/10 00:56:35;;;;;;;7.15;5.63;;;;;;;10.91;100.00;99529.25;5010711;28;20060;-77
2022/05/10 00:59:10;;;;;;;7.85;5.68;;;;;;;11.04;100.00;99558.59;5008989;28;20534;-76
2022/05/10 01:01:39;;;;;;;7.82;5.80;;;;;;;10.85;100.00;99519.91;5002371;28;20054;-77
2022/05/10 01:04:16;;;;;;;10.45;6.20;;;;;;;10.92;100.00;99510.03;5008306;28;20425;-76
2022/05/10 01:06:50;;;;;;;6.72;5.80;;;;;;;10.88;100.00;99519.56;5005252;28;20042;-76
2022/05/10 01:09:25;;;;;;;6.50;5.90;;;;;;;10.91;100.00;99543.69;5009280;28;20038;-76
2022/05/10 01:12:01;;;;;;;8.52;6.13;;;;;;;10.86;100.00;99539.81;4997138;28;20046;-76
2022/05/10 01:14:32;;;;;;;9.45;5.93;;;;;;;10.71;100.00;99513.34;5009546;28;20050;-76
2022/05/10 01:16:59;;;;;;;8.68;5.72;;;;;;;10.55;100.00;99518.88;5010481;28;20054;-76
2022/05/10 01:19:26;;;;;;;10.65;6.45;;;;;;;10.52;100.00;99513.78;5004075;28;20050;-76
2022/05/10 01:22:10;;;;;;;9.48;7.32;;;;;;;10.64;100.00;99525.97;5007618;28;20053;-76
2022/05/10 01:24:49;;;;;;;9.05;6.50;;;;;;;10.95;100.00;99528.69;5010854;28;20061;-76
2022/05/10 01:27:44;;;;;;;10.15;6.65;;;;;;;10.92;100.00;99525.50;5003324;28;20042;-76
2022/05/10 01:30:15;;;;;;;6.70;5.93;;;;;;;10.48;100.00;99490.69;5010127;28;20053;-76
2022/05/10 01:35:37;;;;;;;7.07;5.78;;;;;;;10.24;100.00;99489.75;4990626;28;20053;-76
2022/05/10 01:38:08;;;;;;;8.05;6.32;;;;;;;10.35;100.00;99526.59;5004888;28;20054;-77
2022/05/10 01:40:38;;;;;;;8.25;5.82;;;;;;;10.22;100.00;99489.91;5004241;28;20509;-76
2022/05/10 01:43:12;;;;;;;14.75;6.28;;;;;;;10.22;100.00;99495.34;5004838;28;20041;-76
2022/05/10 01:45:45;;;;;;;12.55;6.40;;;;;;;10.28;100.00;99488.34;5011144;28;20513;-76
2022/05/10 01:48:18;;;;;;;9.75;6.65;;;;;;;10.36;100.00;99485.66;5001544;28;20056;-76
2022/05/10 01:50:50;;;;;;;10.75;6.80;;;;;;;10.60;100.00;99498.28;5000361;28;20050;-77
2022/05/10 01:53:19;;;;;;;8.60;5.88;;;;;;;10.49;100.00;99492.38;5004940;28;20481;-76
2022/05/10 01:55:48;;;;;;;12.45;6.43;;;;;;;10.30;100.00;99521.66;5006149;28;20061;-76
2022/05/10 01:58:17;;;;;;;8.73;5.93;;;;;;;10.37;100.00;99508.22;4996687;28;20042;-76
2022/05/10 02:00:52;;;;;;;10.02;6.63;;;;;;;10.47;100.00;99517.03;5001182;28;20061;-76
2022/05/10 02:03:23;;;;;;;8.43;6.43;;;;;;;10.37;100.00;99503.66;4996971;28;20061;-76
2022/05/10 02:05:55;;;;;;;7.43;6.53;;;;;;;10.11;100.00;99482.13;5009930;28;20050;-77
2022/05/10 02:08:33;;;;;;;10.70;6.35;;;;;;;10.16;100.00;99514.19;5000731;28;20060;-76
2022/05/10 02:11:04;;;;;;;8.63;6.18;;;;;;;9.98;100.00;99496.28;4998913;28;20144;-76
2022/05/10 02:13:35;;;;;;;8.10;6.55;;;;;;;9.90;100.00;99480.81;4997159;28;20055;-76
2022/05/10 02:16:10;;;;;;;9.00;7.28;;;;;;;10.10;100.00;99519.31;5008214;28;20053;-76
2022/05/10 02:18:43;;;;;;;9.30;7.20;;;;;;;10.15;100.00;99513.38;5009050;28;20046;-76
2022/05/10 02:21:15;;;;;;;10.57;7.32;;;;;;;10.01;100.00;99489.63;5001175;28;20046;-76
2022/05/10 02:23:50;;;;;;;10.80;6.60;;;;;;;9.88;100.00;99487.47;5003125;28;20053;-76
2022/05/10 02:26:20;;;;;;;13.05;6.90;;;;;;;9.65;100.00;99471.88;4997029;28;20047;-76
2022/05/10 02:28:52;;;;;;;8.38;6.30;;;;;;;9.99;100.00;99511.53;5005627;28;20477;-76
2022/05/10 02:31:23;;;;;;;10.43;6.50;;;;;;;9.84;100.00;99473.34;5001402;28;20053;-76
2022/05/10 02:33:49;;;;;;;10.23;7.05;;;;;;;10.00;100.00;99477.09;5001251;28;20058;-76
2022/05/10 02:36:17;;;;;;;9.75;6.45;;;;;;;9.86;100.00;99474.06;5004621;28;20050;-76
2022/05/10 02:38:45;;;;;;;8.82;6.85;;;;;;;9.88;100.00;99498.31;5003943;28;20046;-76
2022/05/10 02:41:15;;;;;;;9.35;6.80;;;;;;;9.82;100.00;99490.88;4998826;28;20056;-76
2022/05/10 02:43:45;;;;;;;;;;;;;;;10.06;100.00;99501.66;5000416;28;20050;-76
2022/05/10 02:46:12;;;;;;;12.57;7.25;;;;;;;10.08;100.00;99496.06;4993872;28;20144;-76
2022/05/10 02:48:39;;;;;;;9.35;6.70;;;;;;;10.12;100.00;99499.25;5000780;28;20046;-76
2022/05/10 02:51:07;;;;;;;8.70;6.93;;;;;;;9.88;100.00;99466.56;5006633;28;20054;-76
2022/05/10 02:53:33;;;;;;;9.35;7.55;;;;;;;9.89;100.00;99492.72;5006984;28;20412;-77
2022/05/10 02:56:02;;;;;;;9.10;6.95;;;;;;;9.92;100.00;99496.94;5004613;28;20061;-76
2022/05/10 02:58:32;;;;;;;8.32;7.38;;;;;;;9.74;100.00;99486.28;5003063;28;20042;-76
2022/05/10 03:01:05;;;;;;;10.55;6.93;;;;;;;9.72;100.00;99497.28;4999506;28;20054;-76
2022/05/10 03:03:33;;;;;;;9.05;7.05;;;;;;;9.53;100.00;99454.25;5008245;28;20493;-76
2022/05/10 03:06:00;;;;;;;11.80;7.40;;;;;;;9.65;100.00;99480.03;5007871;28;20054;-76
2022/05/10 03:08:27;;;;;;;9.65;7.88;;;;;;;9.79;100.00;99492.03;5008705;28;20052;-76
2022/05/10 03:10:53;;;;;;;10.48;7.03;;;;;;;9.82;100.00;99496.28;4999860;28;20053;-76
2022/05/10 03:13:20;;;;;;;10.77;7.10;;;;;;;9.85;100.00;99498.66;4998689;28;20061;-76
2022/05/10 03:15:47;;;;;;;8.57;7.05;;;;;;;9.73;100.00;99485.44;5007289;28;20058;-76
2022/05/10 03:18:13;;;;;;;8.25;6.68;;;;;;;9.65;100.00;99496.31;5001178;28;20042;-76
2022/05/10 03:20:40;;;;;;;9.98;7.63;;;;;;;9.42;100.00;99457.31;5006213;28;20050;-76
2022/05/10 03:23:08;;;;;;;9.35;7.10;;;;;;;9.55;100.00;99457.63;5006807;28;20054;-76
2022/05/10 03:25:35;;;;;;;9.60;6.80;;;;;;;9.54;100.00;99464.94;5007565;28;20489;-76
2022/05/10 03:28:02;;;;;;;8.45;6.63;;;;;;;9.48;100.00;99465.59;5000201;28;20042;-76
2022/05/10 03:30:31;;;;;;;10.02;7.00;;;;;;;9.36;100.00;99453.41;5002199;28;20046;-76
2022/05/10 03:32:58;;;;;;;8.18;6.72;;;;;;;9.44;100.00;99472.41;5002312;28;20060;-76
2022/05/10 03:35:25;;;;;;;8.23;7.07;;;;;;;9.67;100.00;99493.44;5007411;28;20401;-76
2022/05/10 03:37:52;;;;;;;8.07;6.35;;;;;;;9.42;100.00;99451.88;5000110;28;20053;-76
2022/05/10 03:40:20;;;;;;;9.25;7.47;;;;;;;9.30;100.00;99456.78;5003222;28;20509;-76
2022/05/10 03:42:47;;;;;;;10.70;7.18;;;;;;;9.20;100.00;99448.84;4996986;28;20058;-76
2022/05/10 03:45:15;;;;;;;10.38;7.72;;;;;;;9.10;100.00;99440.00;5006605;28;20049;-76
2022/05/10 03:47:41;;;;;;;9.48;7.30;;;;;;;9.20;100.00;99467.81;5008604;28;20057;-76
2022/05/10 03:50:13;;;;;;;9.80;7.05;;;;;;;9.25;100.00;99448.31;5027539;28;20052;-76
2022/05/10 03:52:41;;;;;;;11.77;6.82;;;;;;;9.30;100.00;99445.94;4997450;28;20126;-76
2022/05/10 03:55:11;;;;;;;8.00;6.90;;;;;;;9.48;100.00;99490.03;5008121;28;20049;-76
2022/05/10 03:57:39;;;;;;;8.85;6.95;;;;;;;9.41;100.00;99491.75;5008689;28;20135;-77
2022/05/10 04:00:10;;;;;;;10.75;7.72;;;;;;;9.22;100.00;99454.94;5006893;28;20050;-76
2022/05/10 04:02:37;;;;;;;9.10;7.00;;;;;;;9.15;100.00;99464.75;5002045;28;20064;-76
2022/05/10 04:05:04;;;;;;;10.23;7.18;;;;;;;9.09;100.00;99468.97;4990775;28;20409;-77
2022/05/10 04:07:31;;;;;;;8.50;7.30;;;;;;;9.13;100.00;99458.66;5005968;28;20045;-76
2022/05/10 04:09:58;;;;;;;12.38;7.60;;;;;;;9.31;100.00;99491.06;5007312;28;20053;-76
2022/05/10 04:12:24;;;;;;;11.32;7.43;;;;;;;9.26;100.00;99456.28;4997427;28;20053;-76
2022/05/10 04:14:52;;;;;;;9.13;7.30;;;;;;;9.34;100.00;99450.84;4998920;28;20482;-76
2022/05/10 04:17:19;;;;;;;10.45;6.90;;;;;;;9.36;100.00;99472.38;5006581;28;20057;-76
2022/05/10 04:19:45;;;;;;;9.68;7.47;;;;;;;9.48;100.00;99490.03;5005124;28;20529;-76
2022/05/10 04:22:12;;;;;;;7.93;6.70;;;;;;;9.36;100.00;99456.09;5005334;28;20053;-76
2022/05/10 04:24:39;;;;;;;11.02;7.63;;;;;;;9.47;100.00;99473.91;4997272;28;20050;-77
2022/05/10 04:27:06;;;;;;;8.45;7.50;;;;;;;9.35;100.00;99446.28;5011877;28;20065;-76
2022/05/10 04:29:32;;;;;;;11.80;7.97;;;;;;;9.63;100.00;99462.19;5007240;28;20136;-76
2022/05/10 04:32:00;;;;;;;8.88;7.35;;;;;;;9.59;100.00;99441.84;4996892;28;20061;-77
2022/05/10 04:34:27;;;;;;;10.63;7.22;;;;;;;9.78;100.00;99474.06;5005024;28;20046;-76
2022/05/10 04:36:53;;;;;;;11.40;7.45;;;;;;;9.96;100.00;99457.56;4998932;28;20054;-76
2022/05/10 04:39:20;;;;;;;10.18;7.53;;;;;;;10.19;100.00;99473.09;5007752;28;20416;-76
2022/05/10 04:41:49;;;;;;;8.93;7.32;;;;;;;10.08;100.00;99448.00;5000825;28;20124;-76
2022/05/10 04:44:16;;;;;;;10.27;7.68;;;;;;;10.17;100.00;99459.69;5000553;28;20050;-76
2022/05/10 04:46:43;;;;;;;10.27;8.13;;;;;;;10.33;100.00;99475.13;5005630;28;20058;-76
2022/05/10 04:49:14;;;;;;;12.23;7.07;;;;;;;10.21;100.00;99447.47;5006202;28;20507;-76
2022/05/10 04:51:41;;;;;;;9.15;7.50;;;;;;;10.37;100.00;99479.19;5005027;28;20060;-76
2022/05/10 04:54:09;;;;;;;9.80;7.80;;;;;;;10.29;100.00;99441.13;4993901;28;20051;-76
2022/05/10 04:56:35;;;;;;;10.52;8.52;;;;;;;10.46;100.00;99458.25;5015895;28;20052;-76
2022/05/10 04:59:02;;;;;;;10.10;8.38;;;;;;;10.65;100.00;99484.16;5005399;28;20050;-76
2022/05/10 05:01:31;;;;;;;14.55;8.40;;;;;;;10.54;100.00;99458.22;5003408;28;20168;-76
2022/05/10 05:03:59;;;;;;;9.15;7.28;;;;;;;10.59;100.00;99446.81;5006506;28;20056;-76
2022/05/10 05:06:28;;;;;;;12.48;8.13;;;;;;;10.87;100.00;99471.66;5025686;28;20496;-76
2022/05/10 05:08:55;;;;;;;11.93;7.90;;;;;;;11.10;100.00;99478.97;4997247;28;20100;-76
2022/05/10 05:11:22;;;;;;;8.35;7.45;;;;;;;11.16;100.00;99459.19;5002688;28;20042;-76
2022/05/10 05:13:49;;;;;;;9.63;7.32;;;;;;;11.23;100.00;99454.72;5004001;28;20050;-76
2022/05/10 05:16:15;;;;;;;12.07;7.30;;;;;;;11.49;100.00;99469.84;5005894;28;20072;-76
2022/05/10 05:18:42;;;;;;;11.10;7.65;;;;;;;11.83;100.00;99463.03;5001571;28;20046;-76
2022/05/10 05:21:09;;;;;;;13.00;8.15;;;;;;;12.36;100.00;99468.44;5006366;28;20157;-76
2022/05/10 05:23:36;;;;;;;10.85;7.93;;;;;;;13.07;100.00;99501.44;5004001;28;20386;-76
2022/05/10 05:26:03;;;;;;;11.10;7.93;;;;;;;13.55;100.00;99506.34;5002253;28;20057;-76
2022/05/10 05:28:30;;;;;;;9.25;7.30;;;;;;;13.61;100.00;99467.31;5001566;28;20045;-76
2022/05/10 05:30:58;;;;;;;13.20;7.53;;;;;;;14.12;98.62;99495.44;5003772;28;20056;-76
2022/05/10 05:33:25;;;;;;;11.43;7.13;;;;;;;14.43;97.95;99505.09;5008957;28;20445;-76
2022/05/10 05:35:52;;;;;;;11.00;7.03;;;;;;;14.58;96.38;99492.13;5016919;28;20057;-76
2022/05/10 05:38:18;;;;;;;12.38;7.55;;;;;;;14.67;95.96;99495.59;5009647;28;20056;-76
2022/05/10 05:40:46;;;;;;;9.65;6.75;;;;;;;14.80;96.43;99492.06;5006775;28;20409;-76
2022/05/10 05:43:18;;;;;;;8.32;6.85;;;;;;;14.97;93.26;99467.91;5003319;28;20053;-77
2022/05/10 05:45:44;;;;;;;11.10;8.02;;;;;;;15.08;94.95;99483.72;5066988;28;20493;-76
2022/05/10 05:48:11;;;;;;;7.45;6.50;;;;;;;15.10;90.92;99476.16;5001052;28;20054;-76
2022/05/10 05:50:38;;;;;;;8.85;6.70;;;;;;;15.17;91.39;99490.69;5005493;28;20061;-76
2022/05/10 05:53:05;;;;;;;10.27;6.95;;;;;;;15.19;90.66;99474.06;5010889;28;20383;-76
2022/05/10 05:55:31;;;;;;;7.50;6.55;;;;;;;15.14;91.11;99477.41;5010115;28;20050;-76
2022/05/10 05:57:59;;;;;;;10.93;6.65;;;;;;;15.43;92.44;99464.41;5012023;28;20486;-76
2022/05/10 06:00:27;;;;;;;8.32;6.90;;;;;;;15.52;92.99;99490.56;5005290;28;20057;-76
2022/05/10 06:02:54;;;;;;;10.00;7.70;;;;;;;15.24;93.07;99485.25;5009075;28;20497;-77
2022/05/10 06:05:23;;;;;;;12.18;7.75;;;;;;;15.15;92.86;99470.91;4991357;28;20494;-76
2022/05/10 06:07:50;;;;;;;9.95;6.65;;;;;;;15.43;92.45;99491.81;5000328;28;20049;-76
2022/05/10 06:10:17;;;;;;;10.10;7.05;;;;;;;15.49;92.50;99479.16;5030894;28;20049;-77
2022/05/10 06:12:44;;;;;;;8.75;7.10;;;;;;;15.78;91.64;99468.88;5029770;28;20060;-76
2022/05/10 06:15:14;;;;;;;9.45;7.75;;;;;;;15.96;92.80;99499.25;5013092;28;20056;-77
2022/05/10 06:17:41;;;;;;;;;;;;;;;16.28;92.41;99502.97;5007577;28;20411;-77
2022/05/10 06:20:11;;;;;;;9.82;7.32;;;;;;;16.38;91.66;99477.00;5009157;28;19929;-77
2022/05/10 06:22:37;;;;;;;11.07;6.65;;;;;;;16.78;90.77;99494.19;5006276;28;20397;-77
2022/05/10 06:25:05;;;;;;;9.95;7.00;;;;;;;17.15;88.98;99488.13;5007464;28;20042;-77
2022/05/10 06:27:32;;;;;;;12.10;7.30;;;;;;;17.31;88.53;99470.28;5008240;28;20061;-77
2022/05/10 06:29:58;;;;;;;10.20;7.88;;;;;;;17.60;87.95;99476.19;5008978;28;20516;-77
2022/05/10 06:32:27;;;;;;;16.65;7.28;;;;;;;17.89;87.02;99474.72;5006300;28;20050;-77
2022/05/10 06:34:55;;;;;;;8.65;7.47;;;;;;;18.19;84.43;99485.88;5007337;28;20155;-77
2022/05/10 06:40:10;;;;;;;10.65;7.32;;;;;;;18.51;80.42;99474.72;5002387;28;20061;-77
2022/05/10 06:42:36;;;;;;;17.13;6.60;;;;;;;18.59;79.52;99473.56;5008279;28;20049;-77
2022/05/10 06:45:04;;;;;;;17.63;7.35;;;;;;;18.81;79.72;99475.88;5008616;28;20054;-77
2022/05/10 06:47:32;;;;;;;14.02;7.18;;;;;;;19.32;77.19;99460.78;5007637;28;20070;-77
2022/05/10 06:49:58;;;;;;;13.43;7.75;;;;;;;19.49;73.77;99463.69;4994209;28;20056;-77
2022/05/10 06:52:25;;;;;;;15.35;7.68;;;;;;;19.32;73.41;99477.31;5007320;28;20042;-77
2022/05/10 06:54:51;;;;;;;15.68;8.93;;;;;;;19.83;73.58;99461.28;5005210;28;20045;-77
2022/05/10 06:57:18;;;;;;;18.05;7.65;;;;;;;20.24;71.43;99494.53;5002692;28;20081;-77
2022/05/10 06:59:44;;;;;;;15.93;8.18;;;;;;;20.05;72.00;99482.75;5005286;28;20053;-77
2022/05/10 07:02:11;;;;;;;12.98;8.00;;;;;;;19.90;70.48;99470.28;5007925;28;20060;-78
2022/05/10 07:04:39;;;;;;;17.73;6.70;;;;;;;20.09;69.60;99484.78;5005647;28;20054;-78
2022/05/10 07:07:05;;;;;;;11.00;6.47;;;;;;;20.17;69.51;99494.63;5001818;28;20052;-77
2022/05/10 07:09:32;;;;;;;10.40;6.85;;;;;;;19.72;67.68;99478.59;5010238;28;20049;-77
2022/05/10 07:11:58;;;;;;;11.55;6.80;;;;;;;19.74;68.18;99488.31;5006423;28;20042;-77
2022/05/10 07:14:25;;;;;;;8.32;6.53;;;;;;;19.79;68.50;99473.84;5006998;28;20053;-77
2022/05/10 07:16:51;;;;;;;13.48;7.05;;;;;;;20.21;69.98;99476.50;5004158;28;20454;-77
2022/05/10 07:19:18;;;;;;;12.60;6.30;;;;;;;20.06;68.33;99470.63;5007757;28;20486;-78
2022/05/10 07:21:47;;;;;;;16.00;6.85;;;;;;;20.49;66.27;99450.09;5018442;28;20051;-77
2022/05/10 07:24:16;;;;;;;9.27;5.90;;;;;;;20.67;66.32;99452.69;5008686;28;20405;-77
2022/05/10 07:26:45;;;;;;;11.00;6.43;;;;;;;20.50;64.89;99460.88;5010269;28;20105;-77
2022/05/10 07:29:11;;;;;;;9.27;6.00;;;;;;;20.64;63.83;99458.69;4993025;28;20482;-77
2022/05/10 07:31:38;;;;;;;14.05;6.05;;;;;;;21.10;64.90;99469.84;5001434;28;20489;-77
2022/05/10 07:34:05;;;;;;;11.90;6.18;;;;;;;20.98;63.23;99472.66;5007448;28;20050;-77
2022/05/10 07:36:34;;;;;;;12.35;6.82;;;;;;;21.04;65.38;99473.59;5008775;28;20046;-77
2022/05/10 07:39:03;;;;;;;9.13;5.38;;;;;;;21.12;63.11;99455.78;5004703;28;20574;-77
2022/05/10 07:41:29;;;;;;;9.15;6.38;;;;;;;21.38;63.81;99507.72;5007949;28;20042;-77
2022/05/10 07:43:57;;;;;;;8.20;5.88;;;;;;;21.32;64.03;99475.53;5012725;28;20061;-77
2022/05/10 07:46:23;;;;;;;10.25;6.97;;;;;;;21.18;62.59;99452.03;5111686;28;20047;-78
2022/05/10 07:48:51;;;;;;;7.72;5.50;;;;;;;21.72;64.90;99479.28;5037489;28;20505;-78
2022/05/10 07:51:18;;;;;;;8.50;6.40;;;;;;;21.66;65.47;99460.94;5021512;28;20053;-78
2022/05/10 07:53:45;;;;;;;8.20;6.53;;;;;;;21.72;65.06;99490.34;5026461;28;20054;-78
2022/05/10 07:56:13;;;;;;;9.57;6.45;;;;;;;21.87;62.97;99481.47;4999187;28;20405;-77
2022/05/10 07:58:41;;;;;;;9.70;7.07;;;;;;;21.87;63.53;99471.22;5006428;28;20485;-77
2022/05/10 08:01:08;;;;;;;10.02;7.03;;;;;;;21.91;62.44;99472.41;5005389;28;20309;-77
2022/05/10 08:03:35;;;;;;;11.05;6.25;;;;;;;21.84;63.04;99470.91;5002181;28;20049;-77
2022/05/10 08:06:02;;;;;;;9.90;6.53;;;;;;;21.78;63.53;99464.44;5007911;28;20057;-78
2022/05/10 08:08:33;;;;;;;10.20;6.38;;;;;;;21.48;62.90;99453.66;5007063;28;20481;-78
2022/05/10 08:11:01;;;;;;;7.70;6.38;;;;;;;21.27;64.94;99463.53;5007837;28;20133;-77
2022/05/10 08:13:32;;;;;;;9.40;6.00;;;;;;;21.25;63.42;99457.41;5003836;28;20062;-78
2022/05/10 08:15:59;;;;;;;15.27;5.78;;;;;;;21.50;64.45;99462.59;4990184;28;20050;-78
2022/05/10 08:18:27;;;;;;;8.32;6.53;;;;;;;21.65;64.64;99454.56;4994560;28;20056;-77
2022/05/10 08:20:57;;;;;;;9.70;6.78;;;;;;;21.84;63.06;99440.47;5004377;28;20046;-78
2022/05/10 08:23:26;;;;;;;9.40;6.60;;;;;;;22.14;61.65;99476.09;5006768;28;20046;-78
2022/05/10 08:25:57;;;;;;;7.40;5.95;;;;;;;22.17;61.98;99466.44;5005985;28;20054;-78
2022/05/10 08:28:23;;;;;;;9.73;6.90;;;;;;;22.22;60.45;99458.19;5007719;28;20420;-78
2022/05/10 08:30:52;;;;;;;7.25;5.10;;;;;;;22.32;61.83;99458.38;5007344;28;20492;-78
2022/05/10 08:33:19;;;;;;;10.82;6.15;;;;;;;22.25;66.48;99460.47;5007050;28;20490;-78
2022/05/10 08:35:45;;;;;;;8.68;5.68;;;;;;;22.38;61.93;99443.50;5005787;28;20065;-78
2022/05/10 08:38:12;;;;;;;11.00;5.18;;;;;;;22.56;59.94;99452.63;5008037;28;20080;-78
2022/05/10 08:40:44;;;;;;;9.65;5.97;;;;;;;22.70;58.68;99466.91;5007451;28;20420;-77
2022/05/10 08:43:16;;;;;;;7.30;6.40;;;;;;;22.42;60.00;99447.44;5005915;28;20052;-78
2022/05/10 08:45:46;;;;;;;12.00;6.40;;;;;;;22.66;61.25;99451.91;5007123;28;20046;-78
2022/05/10 08:48:14;;;;;;;11.48;6.15;;;;;;;22.62;60.67;99444.09;5008014;28;20054;-77
2022/05/10 08:50:45;;;;;;;7.50;5.70;;;;;;;22.42;58.88;99447.44;5010352;28;20308;-78
2022/05/10 08:53:13;;;;;;;9.07;6.03;;;;;;;22.84;60.51;99462.69;5010510;28;20141;-78
2022/05/10 08:55:44;;;;;;;10.88;6.57;;;;;;;22.75;57.20;99453.16;5010811;28;20049;-78
2022/05/10 08:58:28;;;;;;;8.77;6.60;;;;;;;23.00;59.18;99441.50;5011068;28;20066;-78
2022/05/10 09:01:00;;;;;;;13.63;6.55;;;;;;;23.10;57.05;99460.22;5008710;28;20050;-78
2022/05/10 09:03:34;;;;;;;6.50;5.68;;;;;;;23.33;56.27;99456.31;5010359;28;20057;-78
2022/05/10 09:06:04;;;;;;;7.43;6.28;;;;;;;23.42;58.32;99437.25;5010953;28;20504;-78
2022/05/10 09:08:36;;;;;;;;;;;;;;;23.53;57.14;99452.91;5010037;28;20058;-78
2022/05/10 09:11:05;;;;;;;10.15;5.97;;;;;;;23.35;55.36;99444.94;5009355;28;19925;-78
2022/05/10 09:13:32;;;;;;;13.10;6.68;;;;;;;23.18;54.19;99425.66;5015752;28;20055;-78
2022/05/10 09:16:02;;;;;;;8.27;6.28;;;;;;;23.11;56.03;99417.56;5013990;28;20046;-78
2022/05/10 09:18:32;;;;;;;7.93;5.63;;;;;;;23.29;61.18;99439.38;5010966;28;20058;-78
2022/05/10 09:21:07;;;;;;;6.30;5.57;;;;;;;23.38;59.03;99447.19;5011094;28;20054;-78
2022/05/10 09:23:42;;;;;;;8.25;5.53;;;;;;;23.36;58.04;99425.25;5033695;28;20414;-78
2022/05/10 09:26:13;;;;;;;8.55;5.97;;;;;;;23.53;54.34;99436.25;5114105;28;20138;-78
2022/05/10 09:28:45;;;;;;;8.75;5.45;;;;;;;23.47;57.46;99415.94;5046745;28;20050;-78
2022/05/10 09:37:13;;;;;;;7.72;5.80;;;;;;;23.63;56.85;99416.06;5008900;28;20106;-78
2022/05/10 09:39:47;;;;;;;7.18;5.57;;;;;;;23.30;54.30;99427.16;5006221;28;20058;-78
2022/05/10 09:42:26;;;;;;;6.53;5.25;;;;;;;23.84;57.24;99405.97;5001694;28;20050;-78
2022/05/10 09:44:58;;;;;;;5.83;4.77;;;;;;;23.67;48.66;99404.19;5010319;28;20046;-78
2022/05/10 09:47:25;;;;;;;6.40;4.93;;;;;;;23.89;48.94;99414.34;5009873;28;20102;-77
2022/05/10 09:49:54;;;;;;;5.32;4.55;;;;;;;23.89;47.41;99400.47;5015216;28;20053;-77
2022/05/10 09:52:27;;;;;;;7.50;5.28;;;;;;;24.04;52.63;99402.50;5011023;28;20058;-78
2022/05/10 09:54:57;;;;;;;8.82;4.97;;;;;;;24.34;53.32;99424.09;5011242;28;20046;-78
2022/05/10 09:57:28;;;;;;;10.13;5.90;;;;;;;24.16;51.26;99402.31;5010186;28;20054;-78
2022/05/10 09:59:55;;;;;;;5.85;4.78;;;;;;;24.42;51.12;99419.09;5002882;28;20054;-78
2022/05/10 10:02:30;;;;;;;5.82;4.85;;;;;;;24.42;49.03;99394.97;5008907;28;20053;-78
2022/05/10 10:04:59;;;;;;;8.45;4.78;;;;;;;24.69;48.88;99424.53;5007893;28;20053;-78
2022/05/10 10:07:28;;;;;;;9.30;4.10;;;;;;;24.61;45.27;99394.50;5009765;28;20408;-78
2022/05/10 10:09:56;;;;;;;6.18;4.15;;;;;;;24.87;43.93;99423.22;5010169;28;20062;-78
2022/05/10 10:12:34;;;;;;;5.32;4.22;;;;;;;24.81;45.43;99408.47;5009327;28;20054;-78
2022/05/10 10:15:03;;;;;;;6.72;5.03;;;;;;;24.83;50.75;99394.31;5009468;28;20057;-79
2022/05/10 10:17:35;;;;;;;5.15;4.35;;;;;;;25.16;47.88;99392.16;5007880;28;20062;-78
2022/05/10 10:20:12;;;;;;;7.38;4.72;;;;;;;25.11;45.10;99394.91;5009284;28;20049;-78
2022/05/10 10:22:42;;;;;;;6.40;3.78;;;;;;;24.95;42.66;99385.72;5023218;28;20482;-78
2022/05/10 10:25:12;;;;;;;;;;;;;;;24.92;43.17;99407.38;5010859;28;20053;-78
2022/05/10 10:27:44;;;;;;;4.50;3.20;;;;;;;25.22;48.64;99369.63;5008731;28;19926;-78
2022/05/10 10:30:26;;;;;;;6.20;4.18;;;;;;;25.32;44.14;99382.72;5001753;28;20050;-78
2022/05/10 10:33:17;;;;;;;5.75;3.42;;;;;;;25.20;43.93;99393.25;4995066;28;20403;-78
2022/05/10 10:35:51;;;;;;;5.25;3.60;;;;;;;25.07;43.74;99377.94;5006024;28;20073;-78
2022/05/10 10:38:23;;;;;;;6.80;3.55;;;;;;;24.92;43.33;99387.09;5003252;28;20669;-78
2022/05/10 10:40:57;;;;;;;6.45;4.30;;;;;;;24.91;41.66;99390.97;5011079;28;20132;-77
2022/05/10 10:46:53;;;;;;;5.10;3.58;;;;;;;25.53;41.95;99366.84;5025729;27;20053;-78
2022/05/10 10:49:25;;;;;;;5.10;3.38;;;;;;;25.78;42.49;99370.75;5007629;28;20050;-78
2022/05/10 10:51:53;;;;;;;13.93;5.03;;;;;;;25.95;43.83;99346.22;5009056;28;20050;-78
2022/05/10 10:54:23;;;;;;;6.80;3.53;;;;;;;25.91;41.13;99344.25;5007874;28;20053;-79
2022/05/10 10:57:03;;;;;;;4.10;3.55;;;;;;;25.99;40.84;99349.28;5022257;28;20409;-78
2022/05/10 11:00:06;;;;;;;4.30;3.33;;;;;;;25.83;37.17;99340.09;5026402;28;20409;-78
2022/05/10 11:02:59;;;;;;;4.45;3.28;;;;;;;25.84;38.40;99332.59;4946690;28;20142;-78
2022/05/10 11:05:36;;;;;;;4.88;3.40;;;;;;;25.73;40.42;99340.13;5009229;28;20061;-78
2022/05/10 11:08:17;;;;;;;6.03;3.38;;;;;;;25.65;37.98;99360.19;5006391;28;20393;-78
2022/05/10 11:10:49;;;;;;;4.53;3.22;;;;;;;26.25;38.75;99343.63;4997599;28;20639;-78
2022/05/10 11:13:28;;;;;;;4.28;2.88;;;;;;;26.11;36.38;99324.75;4994734;28;20054;-78
2022/05/10 11:16:06;;;;;;;5.93;3.30;;;;;;;26.25;37.46;99343.63;5005816;28;20053;-78
2022/05/10 11:18:42;;;;;;;4.72;2.50;;;;;;;26.23;36.99;99349.50;5005588;28;20057;-78
2022/05/10 11:21:24;;;;;;;3.70;3.20;;;;;;;26.48;38.06;99322.63;5006629;28;20099;-78
2022/05/10 11:24:03;;;;;;;3.85;2.92;;;;;;;26.44;37.55;99299.25;5005238;28;20050;-78
2022/05/10 11:26:47;;;;;;;5.72;3.00;;;;;;;27.13;33.92;99313.31;5008345;28;20050;-78
2022/05/10 11:29:41;;;;;;;8.10;3.00;;;;;;;27.02;34.54;99338.53;5009497;28;20054;-78
2022/05/10 11:32:23;;;;;;;4.90;2.95;;;;;;;27.40;33.90;99315.66;5016993;28;20042;-78
2022/05/10 11:35:08;;;;;;;5.55;3.42;;;;;;;27.67;36.09;99305.88;5005826;28;20061;-78
2022/05/10 11:37:41;;;;;;;4.03;3.00;;;;;;;27.76;32.57;99306.91;5007710;28;20054;-78
2022/05/10 11:40:47;;;;;;;4.93;3.33;;;;;;;27.24;34.66;99288.97;5011315;28;20046;-78
2022/05/10 11:43:52;;;;;;;3.53;2.65;;;;;;;27.30;34.57;99329.66;5000033;28;20046;-78
2022/05/10 11:47:09;;;;;;;3.38;2.72;;;;;;;27.06;33.75;99293.31;4993942;28;20390;-78
2022/05/10 11:49:56;;;;;;;4.72;3.10;;;;;;;26.63;35.78;99300.25;5006746;28;20050;-78
2022/05/10 11:52:52;;;;;;;3.58;2.97;;;;;;;26.54;39.45;99288.03;5000086;28;20046;-78
2022/05/10 11:55:32;;;;;;;3.95;3.20;;;;;;;26.76;37.85;99312.75;4992770;28;20496;-78
2022/05/10 11:58:03;;;;;;;6.93;3.00;;;;;;;27.25;38.10;99318.53;5009656;28;20100;-78
2022/05/10 12:00:54;;;;;;;5.50;3.67;;;;;;;27.42;32.51;99295.81;5009638;28;20103;-78